createdAt,value
2018-09-14T00:02:22.261Z,13.00
2018-09-14T00:06:30.562Z,12.90
2018-09-14T00:10:38.832Z,12.90
2018-09-14T00:14:47.180Z,12.90
2018-09-14T00:23:03.569Z,12.80
2018-09-14T00:27:11.826Z,12.70
2018-09-14T00:31:20.153Z,12.70
2018-09-14T00:35:28.478Z,12.80
2018-09-14T00:39:36.827Z,12.70
2018-09-14T00:43:45.202Z,12.70
2018-09-14T00:47:53.567Z,12.70
2018-09-14T00:52:01.883Z,12.60
2018-09-14T00:56:10.284Z,12.60
2018-09-14T01:00:18.625Z,12.70
2018-09-14T01:04:26.983Z,12.50
2018-09-14T01:08:35.317Z,12.40
2018-09-14T01:12:43.654Z,12.30
2018-09-14T01:16:52.045Z,12.40
2018-09-14T01:21:00.387Z,12.40
2018-09-14T01:25:08.750Z,12.40
2018-09-14T01:29:17.144Z,12.30
2018-09-14T01:33:25.508Z,12.10
2018-09-14T01:37:33.883Z,12.10
2018-09-14T01:41:42.252Z,12.10
2018-09-14T01:45:50.649Z,12.10
2018-09-14T01:49:59.009Z,12.10
2018-09-14T01:54:07.381Z,12.20
2018-09-14T01:58:15.684Z,12.10
2018-09-14T02:02:24.008Z,12.00
2018-09-14T02:06:32.364Z,12.10
2018-09-14T02:10:40.730Z,12.00
2018-09-14T02:14:49.069Z,12.00
2018-09-14T02:18:57.444Z,11.90
2018-09-14T02:23:05.834Z,11.90
2018-09-14T02:27:14.129Z,11.80
2018-09-14T02:31:22.605Z,11.80
2018-09-14T02:35:30.905Z,11.80
2018-09-14T02:39:39.224Z,11.80
2018-09-14T02:43:47.508Z,11.80
2018-09-14T02:47:55.800Z,11.70
2018-09-14T02:52:04.168Z,11.60
2018-09-14T02:56:12.462Z,11.70
2018-09-14T03:00:20.767Z,11.70
2018-09-14T03:04:29.076Z,11.80
2018-09-14T03:08:37.443Z,11.70
2018-09-14T03:12:45.781Z,11.80
2018-09-14T03:16:54.104Z,11.60
2018-09-14T03:21:02.461Z,11.70
2018-09-14T03:25:10.781Z,11.50
2018-09-14T03:29:19.092Z,11.60
2018-09-14T03:33:27.396Z,11.50
2018-09-14T03:37:35.709Z,11.50
2018-09-14T03:41:43.982Z,11.50
2018-09-14T03:45:52.306Z,11.60
2018-09-14T03:50:00.625Z,11.50
2018-09-14T03:54:08.991Z,11.40
2018-09-14T03:58:17.369Z,11.40
2018-09-14T04:02:25.713Z,11.40
2018-09-14T04:06:34.159Z,11.30
2018-09-14T04:10:42.455Z,11.20
2018-09-14T04:14:50.768Z,11.20
2018-09-14T04:19:03.280Z,11.20
2018-09-14T04:23:11.578Z,11.20
2018-09-14T04:27:19.924Z,11.20
2018-09-14T04:31:28.291Z,11.30
2018-09-14T04:35:36.652Z,11.20
2018-09-14T04:39:44.939Z,11.10
2018-09-14T04:43:53.321Z,11.10
2018-09-14T04:48:01.753Z,11.10
2018-09-14T04:52:10.185Z,11.10
2018-09-14T04:56:18.485Z,11.20
2018-09-14T05:00:26.808Z,11.10
2018-09-14T05:08:43.146Z,11.00
2018-09-14T05:12:51.467Z,10.90
2018-09-14T05:26:25.670Z,10.90
2018-09-14T05:30:34.049Z,10.80
2018-09-14T05:34:42.403Z,10.90
2018-09-14T05:38:50.751Z,11.00
2018-09-14T05:42:59.269Z,11.00
2018-09-14T05:47:08.006Z,11.00
2018-09-14T05:51:16.388Z,11.00
2018-09-14T05:55:24.733Z,11.00
2018-09-14T05:59:33.085Z,10.90
2018-09-14T06:03:41.422Z,11.00
2018-09-14T06:07:49.748Z,11.00
2018-09-14T06:11:58.103Z,11.00
2018-09-14T06:16:06.554Z,11.00
2018-09-14T06:20:14.903Z,11.00
2018-09-14T06:24:23.248Z,11.10
2018-09-14T06:28:31.589Z,11.30
2018-09-14T06:32:39.994Z,11.40
2018-09-14T06:36:48.354Z,11.50
2018-09-14T06:40:56.728Z,11.60
2018-09-14T06:45:05.132Z,11.60
2018-09-14T06:53:21.662Z,11.80
2018-09-14T06:57:29.984Z,11.90
2018-09-14T07:01:38.315Z,11.90
2018-09-14T07:05:46.713Z,12.10
2018-09-14T07:09:55.117Z,12.20
2018-09-14T07:14:03.482Z,12.30
2018-09-14T07:18:11.834Z,12.40
2018-09-14T07:22:20.271Z,12.40
2018-09-14T07:26:28.583Z,12.50
2018-09-14T07:30:36.966Z,12.50
2018-09-14T07:34:45.758Z,12.70
2018-09-14T07:38:54.095Z,12.70
2018-09-14T07:43:02.429Z,12.70
2018-09-14T07:47:10.881Z,12.90
2018-09-14T07:51:19.371Z,13.00
2018-09-14T07:55:27.914Z,13.10
2018-09-14T07:59:36.202Z,13.30
2018-09-14T08:07:52.633Z,13.50
2018-09-14T08:12:01.060Z,13.60
2018-09-14T08:16:09.360Z,13.70
2018-09-14T08:20:17.758Z,13.90
2018-09-14T08:24:26.075Z,14.00
2018-09-14T08:28:34.382Z,14.10
2018-09-14T08:32:42.704Z,14.30
2018-09-14T08:36:51.071Z,14.40
2018-09-14T08:40:59.439Z,14.50
2018-09-14T08:45:08.046Z,14.80
2018-09-14T08:49:16.447Z,14.80
2018-09-14T08:53:24.783Z,15.00
2018-09-14T08:57:33.168Z,15.20
2018-09-14T09:01:41.500Z,15.30
2018-09-14T09:05:49.823Z,15.40
2018-09-14T09:09:58.164Z,15.70
2018-09-14T09:14:06.647Z,15.70
2018-09-14T09:18:15.068Z,15.80
2018-09-14T09:22:23.344Z,16.00
2018-09-14T09:26:31.666Z,16.20
2018-09-14T09:30:40.084Z,16.60
2018-09-14T09:34:48.444Z,16.70
2018-09-14T09:38:56.759Z,17.10
2018-09-14T09:43:05.170Z,17.30
2018-09-14T09:47:13.510Z,17.30
2018-09-14T09:51:22.069Z,17.40
2018-09-14T09:55:30.302Z,17.80
2018-09-14T09:59:38.745Z,17.80
2018-09-14T10:03:52.411Z,17.90
2018-09-14T10:08:00.866Z,18.10
2018-09-14T10:12:09.218Z,18.40
2018-09-14T10:16:17.587Z,18.50
2018-09-14T10:20:25.955Z,18.60
2018-09-14T10:24:34.305Z,18.70
2018-09-14T10:28:42.682Z,18.90
2018-09-14T10:32:51.022Z,18.80
2018-09-14T10:36:59.387Z,18.80
2018-09-14T10:41:07.732Z,18.90
2018-09-14T10:45:17.017Z,19.00
2018-09-14T10:49:25.317Z,19.00
2018-09-14T10:53:33.635Z,18.90
2018-09-14T10:57:41.942Z,18.90
2018-09-14T11:01:50.295Z,18.70
2018-09-14T11:05:58.690Z,18.60
2018-09-14T11:10:07.044Z,18.70
2018-09-14T11:14:15.357Z,18.60
2018-09-14T11:18:23.704Z,18.60
2018-09-14T11:22:31.999Z,18.50
2018-09-14T11:26:40.339Z,18.90
2018-09-14T11:30:48.684Z,19.20
2018-09-14T11:34:57.023Z,19.40
2018-09-14T11:39:08.429Z,19.70
2018-09-14T11:43:16.736Z,19.60
2018-09-14T11:47:25.407Z,19.50
2018-09-14T11:51:33.697Z,19.80
2018-09-14T11:59:50.437Z,20.50
2018-09-14T12:03:58.781Z,20.70
2018-09-14T12:08:07.182Z,20.80
2018-09-14T12:12:15.509Z,20.90
2018-09-14T12:16:23.885Z,20.90
2018-09-14T12:20:32.337Z,20.70
2018-09-14T12:24:40.698Z,20.90
2018-09-14T12:28:49.080Z,20.80
2018-09-14T12:32:57.417Z,20.80
2018-09-14T12:37:05.839Z,20.90
2018-09-14T12:41:14.147Z,21.00
2018-09-14T12:45:22.499Z,20.70
2018-09-14T12:49:30.918Z,20.90
2018-09-14T12:53:39.249Z,21.00
2018-09-14T12:57:47.817Z,21.00
2018-09-14T13:01:56.116Z,21.00
2018-09-14T13:06:04.425Z,20.80
2018-09-14T13:10:12.736Z,20.80
2018-09-14T13:14:21.840Z,20.60
2018-09-14T13:18:30.178Z,20.70
2018-09-14T13:22:38.499Z,20.80
2018-09-14T13:26:47.495Z,20.90
2018-09-14T13:30:55.805Z,20.90
2018-09-14T13:35:04.138Z,20.80
2018-09-14T13:39:12.636Z,20.90
2018-09-14T13:43:20.959Z,20.90
2018-09-14T13:47:29.310Z,21.20
2018-09-14T13:51:37.644Z,21.40
2018-09-14T13:55:45.995Z,21.30
2018-09-14T13:59:54.334Z,21.30
2018-09-14T14:04:02.656Z,21.20
2018-09-14T14:08:11.077Z,21.10
2018-09-14T14:12:19.460Z,21.30
2018-09-14T14:16:27.770Z,21.20
2018-09-14T14:20:36.094Z,21.10
2018-09-14T14:24:44.430Z,21.20
2018-09-14T14:28:52.919Z,21.20
2018-09-14T14:37:09.307Z,21.00
2018-09-14T14:41:17.750Z,21.00
2018-09-14T14:45:25.951Z,20.80
2018-09-14T14:49:34.240Z,20.80
2018-09-14T14:53:42.609Z,20.70
2018-09-14T14:57:50.975Z,20.70
2018-09-14T15:01:59.257Z,20.70
2018-09-14T15:06:07.582Z,20.80
2018-09-14T15:10:15.919Z,20.80
2018-09-14T15:14:24.230Z,20.50
2018-09-14T15:18:32.585Z,20.40
2018-09-14T15:22:40.894Z,20.40
2018-09-14T15:26:49.232Z,20.40
2018-09-14T15:30:57.626Z,20.60
2018-09-14T15:35:05.930Z,20.60
2018-09-14T15:39:14.392Z,20.50
2018-09-14T15:43:22.772Z,20.40
2018-09-14T15:47:31.105Z,20.20
2018-09-14T15:51:39.428Z,20.00
2018-09-14T15:55:47.769Z,19.90
2018-09-14T15:59:56.072Z,19.80
2018-09-14T16:04:04.389Z,19.70
2018-09-14T16:08:12.754Z,19.70
2018-09-14T16:12:21.062Z,19.60
2018-09-14T16:16:29.365Z,19.60
2018-09-14T16:20:37.672Z,19.60
2018-09-14T16:24:46.000Z,19.50
2018-09-14T16:28:54.312Z,19.50
2018-09-14T16:33:02.689Z,19.50
2018-09-14T16:37:11.049Z,19.70
2018-09-14T16:41:19.300Z,19.60
2018-09-14T16:45:27.681Z,19.50
2018-09-14T16:49:36.007Z,19.40
2018-09-14T16:53:44.330Z,19.40
2018-09-14T16:57:52.675Z,19.30
2018-09-14T17:02:01.062Z,19.30
2018-09-14T17:06:09.361Z,19.20
2018-09-14T17:10:17.710Z,19.10
2018-09-14T17:14:26.100Z,19.10
2018-09-14T17:18:34.455Z,18.90
2018-09-14T17:22:42.781Z,18.90
2018-09-14T17:26:51.124Z,18.80
2018-09-14T17:30:59.491Z,18.60
2018-09-14T17:35:07.853Z,18.60
2018-09-14T17:39:16.234Z,18.50
2018-09-14T17:43:24.594Z,18.50
2018-09-14T17:47:32.948Z,18.40
2018-09-14T17:51:41.392Z,18.40
2018-09-14T17:55:49.767Z,18.40
2018-09-14T17:59:58.100Z,18.30
2018-09-14T18:04:06.508Z,18.30
2018-09-14T18:08:14.840Z,18.30
2018-09-14T18:12:23.260Z,18.30
2018-09-14T18:20:40.029Z,18.20
2018-09-14T18:24:48.354Z,18.10
2018-09-14T18:28:56.652Z,18.10
2018-09-14T18:33:05.029Z,18.00
2018-09-14T18:37:13.359Z,18.00
2018-09-14T18:41:21.674Z,18.00
2018-09-14T18:45:29.995Z,18.00
2018-09-14T18:49:38.340Z,18.00
2018-09-14T18:53:46.675Z,18.00
2018-09-14T18:57:55.010Z,18.00
2018-09-14T19:02:03.372Z,17.90
2018-09-14T19:06:12.528Z,18.00
2018-09-14T19:10:20.959Z,17.90
2018-09-14T19:18:37.568Z,17.70
2018-09-14T19:22:45.884Z,17.70
2018-09-14T19:26:54.187Z,17.70
2018-09-14T19:31:02.663Z,17.70
2018-09-14T19:35:10.986Z,17.60
2018-09-14T19:39:19.380Z,17.60
2018-09-14T19:43:27.834Z,17.60
2018-09-14T19:47:36.195Z,17.60
2018-09-14T19:51:44.490Z,17.50
2018-09-14T19:55:52.834Z,17.40
2018-09-14T20:00:01.251Z,17.40
2018-09-14T20:04:09.614Z,17.30
2018-09-14T20:08:17.934Z,17.30
2018-09-14T20:12:26.281Z,17.20
2018-09-14T20:16:34.592Z,17.20
2018-09-14T20:20:42.901Z,17.10
2018-09-14T20:24:51.229Z,17.00
2018-09-14T20:28:59.590Z,17.00
2018-09-14T20:33:07.858Z,16.90
2018-09-14T20:37:16.220Z,16.90
2018-09-14T20:41:24.530Z,16.90
2018-09-14T20:45:32.843Z,16.90
2018-09-14T20:49:41.192Z,16.90
2018-09-14T20:53:49.482Z,16.90
2018-09-14T20:57:57.844Z,16.90
2018-09-14T21:02:06.220Z,16.80
2018-09-14T21:06:14.680Z,16.70
2018-09-14T21:10:23.064Z,16.50
2018-09-14T21:14:31.419Z,16.50
2018-09-14T21:18:40.661Z,16.40
2018-09-14T21:22:48.966Z,16.40
2018-09-14T21:26:57.304Z,16.40
2018-09-14T21:31:05.604Z,16.40
2018-09-14T21:35:13.960Z,16.30
2018-09-14T21:39:22.336Z,16.30
2018-09-14T21:43:30.623Z,16.20
2018-09-14T21:47:39.056Z,16.30
2018-09-14T21:51:47.365Z,16.20
2018-09-14T21:55:55.696Z,16.30
2018-09-14T22:00:09.425Z,16.20
2018-09-14T22:04:17.795Z,16.10
2018-09-14T22:08:26.156Z,16.10
2018-09-14T22:12:34.497Z,16.00
2018-09-14T22:16:42.920Z,15.90
2018-09-14T22:20:51.282Z,15.70
2018-09-14T22:24:59.682Z,15.70
2018-09-14T22:29:07.994Z,15.60
2018-09-14T22:33:16.313Z,15.50
2018-09-14T22:37:24.611Z,15.40
2018-09-14T22:41:32.951Z,15.30
2018-09-14T22:45:41.270Z,15.20
2018-09-14T22:49:49.612Z,15.30
2018-09-14T22:53:57.949Z,15.30
2018-09-14T22:58:06.361Z,15.10
2018-09-14T23:02:14.712Z,15.10
2018-09-14T23:06:23.014Z,15.00
2018-09-14T23:10:31.340Z,15.00
2018-09-14T23:14:40.110Z,14.90
2018-09-14T23:18:48.782Z,14.80
2018-09-14T23:22:57.142Z,14.80
2018-09-14T23:27:05.492Z,14.60
2018-09-14T23:31:13.810Z,14.50
2018-09-14T23:35:22.112Z,14.50
2018-09-14T23:39:30.464Z,14.40
2018-09-14T23:43:38.776Z,14.40
2018-09-14T23:47:47.143Z,14.30
2018-09-14T23:51:55.510Z,14.30
2018-09-14T23:56:04.253Z,14.30
